Terminal Aerodrome Forecast
Issued by NWS

Home | Current Version | Previous Version | Text Only | Print | Product List | Glossary On
Versions: 1 2 3 4 5 6 7 8 9 10 11 12 13 14 15
000
FTUS41 KCAR 281505 AAC
TAFBHB
TAF AMD
KBHB 281505Z 2815/2912 VRB03KT P6SM BKN025 OVC035
     FM281800 26009KT P6SM VCSH BKN080
     FM282100 25009KT P6SM BKN150=

USA.gov is the U.S. government's official web portal to all federal, state and local government web resources and services.